createdAt,value
2023-01-29T00:00:21.163Z,67.17
2023-01-29T00:01:23.440Z,67.14
2023-01-29T00:02:25.936Z,66.94
2023-01-29T00:03:28.425Z,67.19
2023-01-29T00:04:30.596Z,67.25
2023-01-29T00:05:35.267Z,67.07
2023-01-29T00:06:37.468Z,67.06
2023-01-29T00:07:39.837Z,67.30
2023-01-29T00:08:42.336Z,67.02
2023-01-29T00:09:44.522Z,67.63
2023-01-29T00:10:47.750Z,67.64
2023-01-29T00:11:49.986Z,67.44
2023-01-29T00:12:52.759Z,67.75
2023-01-29T00:13:55.146Z,67.28
2023-01-29T00:14:57.367Z,67.65
2023-01-29T00:16:00.216Z,67.65
2023-01-29T00:17:02.524Z,67.57
2023-01-29T00:18:04.975Z,67.86
2023-01-29T00:19:07.520Z,67.72
2023-01-29T00:20:10.383Z,67.37
2023-01-29T00:21:15.318Z,67.53
2023-01-29T00:22:17.527Z,67.55
2023-01-29T00:23:19.783Z,67.82
2023-01-29T00:24:22.722Z,67.81
2023-01-29T00:25:25.347Z,67.85
2023-01-29T00:26:28.202Z,67.55
2023-01-29T00:27:30.352Z,67.72
2023-01-29T00:28:32.912Z,68.12
2023-01-29T00:29:35.442Z,68.35
2023-01-29T00:30:38.427Z,68.40
2023-01-29T00:31:43.974Z,68.39
2023-01-29T00:32:46.439Z,68.15
2023-01-29T00:33:49.778Z,68.27
2023-01-29T00:34:52.539Z,68.19
2023-01-29T00:35:54.761Z,68.24
2023-01-29T00:37:04.710Z,68.39
2023-01-29T00:38:07.143Z,67.90
2023-01-29T00:39:11.045Z,67.30
2023-01-29T00:40:13.663Z,67.46
2023-01-29T00:41:34.444Z,67.42
2023-01-29T00:42:55.176Z,66.72
2023-01-29T00:44:17.147Z,66.59
2023-01-29T00:45:19.426Z,66.90
2023-01-29T00:46:21.743Z,67.41
2023-01-29T00:47:36.576Z,66.95
2023-01-29T00:48:38.792Z,67.12
2023-01-29T00:49:41.174Z,67.32
2023-01-29T00:50:43.331Z,67.84
2023-01-29T00:52:05.678Z,68.23
2023-01-29T00:53:07.862Z,67.68
2023-01-29T00:54:10.044Z,68.10
2023-01-29T00:55:13.402Z,68.29
2023-01-29T00:56:15.594Z,68.02
2023-01-29T00:57:18.002Z,67.81
2023-01-29T00:58:22.501Z,67.77
2023-01-29T00:59:24.722Z,67.36
2023-01-29T01:00:27.293Z,67.37
2023-01-29T01:01:48.281Z,67.30
2023-01-29T01:03:05.647Z,67.67
2023-01-29T01:04:09.176Z,67.84
2023-01-29T01:05:18.072Z,67.34
2023-01-29T01:06:20.462Z,67.65
2023-01-29T01:07:22.695Z,67.33
2023-01-29T01:08:44.863Z,67.36
2023-01-29T01:10:05.368Z,66.90
2023-01-29T01:11:07.924Z,67.17
2023-01-29T01:12:10.155Z,66.99
2023-01-29T01:13:12.676Z,67.22
2023-01-29T01:14:15.088Z,66.98
2023-01-29T01:15:19.053Z,67.00
2023-01-29T01:16:21.695Z,67.00
2023-01-29T01:17:23.896Z,66.89
2023-01-29T01:18:29.979Z,66.99
2023-01-29T01:19:33.895Z,67.18
2023-01-29T01:20:36.944Z,67.40
2023-01-29T01:21:39.569Z,67.59
2023-01-29T01:22:41.784Z,67.43
2023-01-29T01:23:43.965Z,67.56
2023-01-29T01:24:46.249Z,67.48
2023-01-29T01:25:48.505Z,67.13
2023-01-29T01:26:51.022Z,66.89
2023-01-29T01:27:54.650Z,66.94
2023-01-29T01:28:56.829Z,67.03
2023-01-29T01:29:59.035Z,67.36
2023-01-29T01:31:12.313Z,67.35
2023-01-29T01:32:16.088Z,67.15
2023-01-29T01:33:18.772Z,67.28
2023-01-29T01:34:22.124Z,67.19
2023-01-29T01:35:24.734Z,67.15
2023-01-29T01:36:26.950Z,67.23
2023-01-29T01:37:29.498Z,67.43
2023-01-29T01:38:31.865Z,67.17
2023-01-29T01:39:34.064Z,67.12
2023-01-29T01:40:36.391Z,67.15
2023-01-29T01:41:38.862Z,67.12
2023-01-29T01:42:41.572Z,67.19
2023-01-29T01:43:50.103Z,67.03
2023-01-29T01:45:07.867Z,67.01
2023-01-29T01:46:10.540Z,67.19
2023-01-29T01:47:13.810Z,67.23
2023-01-29T01:48:21.942Z,67.41
2023-01-29T01:49:24.849Z,67.39
2023-01-29T01:50:53.452Z,66.97
2023-01-29T01:51:56.056Z,67.19
2023-01-29T01:53:03.098Z,67.66
2023-01-29T01:54:17.011Z,67.85
2023-01-29T01:55:23.408Z,67.88
2023-01-29T01:56:40.465Z,67.53
2023-01-29T01:57:48.033Z,67.56
2023-01-29T01:58:56.828Z,67.91
2023-01-29T02:00:14.381Z,67.97
2023-01-29T02:01:18.967Z,68.04
2023-01-29T02:02:40.615Z,68.45
2023-01-29T02:04:26.406Z,68.27
2023-01-29T02:05:49.394Z,68.52
2023-01-29T02:07:12.549Z,68.57
2023-01-29T02:08:38.862Z,68.59
2023-01-29T02:09:53.063Z,68.78
2023-01-29T02:10:55.517Z,68.26
2023-01-29T02:11:58.137Z,68.01
2023-01-29T02:13:00.391Z,68.40
2023-01-29T02:14:02.862Z,68.28
2023-01-29T02:15:05.835Z,68.35
2023-01-29T02:16:08.144Z,68.42
2023-01-29T02:17:16.351Z,68.42
2023-01-29T02:18:21.583Z,68.67
2023-01-29T02:19:38.881Z,68.37
2023-01-29T02:20:44.263Z,68.60
2023-01-29T02:22:07.944Z,68.55
2023-01-29T02:23:49.604Z,68.53
2023-01-29T02:25:37.936Z,68.42
2023-01-29T02:26:41.199Z,68.54
2023-01-29T02:27:49.287Z,68.54
2023-01-29T02:29:22.493Z,68.40
2023-01-29T02:30:28.360Z,68.80
2023-01-29T02:31:48.570Z,68.07
2023-01-29T02:33:16.636Z,68.25
2023-01-29T02:35:18.682Z,68.40
2023-01-29T02:36:42.541Z,68.01
2023-01-29T02:38:03.584Z,68.05
2023-01-29T02:39:14.819Z,68.28
2023-01-29T02:40:23.439Z,67.64
2023-01-29T02:41:42.731Z,67.29
2023-01-29T02:42:53.105Z,67.36
2023-01-29T02:44:03.435Z,66.64
2023-01-29T02:45:34.199Z,66.83
2023-01-29T02:46:52.585Z,67.22
2023-01-29T02:48:00.693Z,67.28
2023-01-29T02:49:24.419Z,67.29
2023-01-29T02:50:37.426Z,67.71
2023-01-29T02:51:47.167Z,67.01
2023-01-29T02:53:32.567Z,66.51
2023-01-29T02:54:53.529Z,66.79
2023-01-29T02:55:59.519Z,66.25
2023-01-29T02:57:30.234Z,66.45
2023-01-29T02:59:00.674Z,66.04
2023-01-29T03:00:11.656Z,66.25
2023-01-29T03:01:40.093Z,66.42
2023-01-29T03:02:45.252Z,66.44
2023-01-29T03:03:54.992Z,66.17
2023-01-29T03:05:01.743Z,66.04
2023-01-29T03:06:12.069Z,66.05
2023-01-29T03:07:38.719Z,65.97
2023-01-29T03:08:45.629Z,65.22
2023-01-29T03:09:53.254Z,65.45
2023-01-29T03:11:02.860Z,65.48
2023-01-29T03:12:28.630Z,65.37
2023-01-29T03:13:41.328Z,65.16
2023-01-29T03:15:05.034Z,64.92
2023-01-29T03:16:19.176Z,65.01
2023-01-29T03:17:27.198Z,64.83
2023-01-29T03:18:40.572Z,64.85
2023-01-29T03:19:46.918Z,64.70
2023-01-29T03:21:28.851Z,64.95
2023-01-29T03:22:32.752Z,64.54
2023-01-29T03:23:54.407Z,64.70
2023-01-29T03:25:20.156Z,64.87
2023-01-29T03:26:44.124Z,64.92
2023-01-29T03:28:12.364Z,64.87
2023-01-29T03:29:38.290Z,65.08
2023-01-29T03:31:28.001Z,64.92
2023-01-29T03:32:33.223Z,64.36
2023-01-29T03:34:21.224Z,64.13
2023-01-29T03:35:36.657Z,63.99
2023-01-29T03:36:49.070Z,64.22
2023-01-29T03:37:52.267Z,64.41
2023-01-29T03:38:54.543Z,63.90
2023-01-29T03:39:57.518Z,63.90
2023-01-29T03:41:08.961Z,63.92
2023-01-29T03:42:27.215Z,63.45
2023-01-29T03:43:51.123Z,63.37
2023-01-29T03:45:15.345Z,63.50
2023-01-29T03:46:33.214Z,63.61
2023-01-29T03:47:48.748Z,63.68
2023-01-29T03:49:11.875Z,63.21
2023-01-29T03:50:29.875Z,63.63
2023-01-29T03:51:36.570Z,63.75
2023-01-29T03:52:47.956Z,63.77
2023-01-29T03:54:05.715Z,63.93
2023-01-29T03:55:18.039Z,63.90
2023-01-29T03:56:20.402Z,63.62
2023-01-29T03:57:22.575Z,63.77
2023-01-29T03:58:48.255Z,63.43
2023-01-29T04:00:07.774Z,63.47
2023-01-29T04:01:25.467Z,63.48
2023-01-29T04:02:34.230Z,63.23
2023-01-29T04:03:53.069Z,63.36
2023-01-29T04:05:03.700Z,63.29
2023-01-29T04:06:17.399Z,63.57
2023-01-29T04:07:33.498Z,63.58
2023-01-29T04:08:48.375Z,63.84
2023-01-29T04:10:01.944Z,63.95
2023-01-29T04:11:12.977Z,63.55
2023-01-29T04:12:21.570Z,63.22
2023-01-29T04:13:25.180Z,62.78
2023-01-29T04:14:28.336Z,63.04
2023-01-29T04:15:36.478Z,62.68
2023-01-29T04:16:44.424Z,62.70
2023-01-29T04:18:25.350Z,63.16
2023-01-29T04:19:46.376Z,61.63
2023-01-29T04:20:49.689Z,61.98
2023-01-29T04:22:04.016Z,62.27
2023-01-29T04:23:18.557Z,62.21
2023-01-29T04:24:24.444Z,62.29
2023-01-29T04:25:34.289Z,62.38
2023-01-29T04:26:43.119Z,62.93
2023-01-29T04:28:11.953Z,62.69
2023-01-29T04:29:29.774Z,63.06
2023-01-29T04:30:48.009Z,62.68
2023-01-29T04:32:08.577Z,63.02
2023-01-29T04:33:23.302Z,61.85
2023-01-29T04:34:25.792Z,62.04
2023-01-29T04:35:46.404Z,62.47
2023-01-29T04:37:07.713Z,62.36
2023-01-29T04:38:22.672Z,62.72
2023-01-29T04:39:24.995Z,62.18
2023-01-29T04:40:39.521Z,62.33
2023-01-29T04:41:51.868Z,62.00
2023-01-29T04:42:57.081Z,62.58
2023-01-29T04:44:12.510Z,62.61
2023-01-29T04:45:17.599Z,62.20
2023-01-29T04:46:35.950Z,62.26
2023-01-29T04:47:47.958Z,61.87
2023-01-29T04:48:50.073Z,62.42
2023-01-29T04:50:10.556Z,62.49
2023-01-29T04:51:23.155Z,62.46
2023-01-29T04:52:46.782Z,62.75
2023-01-29T04:54:00.000Z,62.61
2023-01-29T04:55:15.307Z,62.89
2023-01-29T04:56:26.083Z,62.57
2023-01-29T04:58:00.133Z,61.80
2023-01-29T04:59:08.433Z,61.75
2023-01-29T05:00:16.756Z,61.91
2023-01-29T05:01:20.795Z,62.57
2023-01-29T05:02:25.023Z,62.75
2023-01-29T05:03:29.448Z,62.23
2023-01-29T05:04:34.641Z,62.33
2023-01-29T05:05:37.786Z,62.26
2023-01-29T05:06:41.736Z,61.84
2023-01-29T05:07:44.545Z,62.01
2023-01-29T05:08:49.779Z,62.51
2023-01-29T05:09:52.270Z,62.56
2023-01-29T05:10:57.243Z,61.90
2023-01-29T05:12:01.919Z,62.41
2023-01-29T05:13:08.005Z,62.67
2023-01-29T05:14:14.791Z,62.42
2023-01-29T05:15:23.386Z,62.33
2023-01-29T05:16:30.173Z,62.29
2023-01-29T05:17:32.412Z,62.43
2023-01-29T05:18:35.342Z,62.40
2023-01-29T05:19:37.638Z,62.38
2023-01-29T05:20:43.235Z,62.43
2023-01-29T05:21:49.021Z,63.04
2023-01-29T05:22:51.278Z,62.61
2023-01-29T05:24:09.656Z,63.02
2023-01-29T05:25:25.479Z,62.57
2023-01-29T05:26:46.708Z,62.47
2023-01-29T05:28:06.679Z,63.33
2023-01-29T05:29:08.878Z,62.78
2023-01-29T05:30:11.529Z,62.61
2023-01-29T05:31:14.004Z,62.84
2023-01-29T05:32:16.541Z,62.50
2023-01-29T05:33:20.404Z,63.08
2023-01-29T05:34:22.836Z,62.72
2023-01-29T05:35:25.570Z,62.87
2023-01-29T05:36:27.846Z,62.96
2023-01-29T05:37:30.218Z,63.02
2023-01-29T05:38:32.591Z,62.40
2023-01-29T05:39:34.809Z,62.76
2023-01-29T05:40:37.688Z,62.61
2023-01-29T05:41:40.094Z,62.95
2023-01-29T05:42:42.676Z,63.02
2023-01-29T05:43:45.059Z,62.48
2023-01-29T05:44:47.332Z,62.54
2023-01-29T05:45:57.685Z,62.93
2023-01-29T05:47:02.613Z,62.93
2023-01-29T05:48:05.204Z,62.72
2023-01-29T05:49:07.573Z,62.87
2023-01-29T05:50:10.337Z,62.87
2023-01-29T05:51:12.513Z,63.35
2023-01-29T05:52:14.701Z,63.04
2023-01-29T05:53:16.898Z,62.68
2023-01-29T05:54:19.861Z,62.59
2023-01-29T05:55:22.116Z,62.65
2023-01-29T05:56:25.350Z,62.38
2023-01-29T05:57:27.523Z,62.39
2023-01-29T05:58:33.583Z,62.32
2023-01-29T05:59:36.015Z,63.10
2023-01-29T06:00:38.668Z,62.46
2023-01-29T06:01:41.101Z,62.45
2023-01-29T06:02:43.355Z,62.49
2023-01-29T06:03:46.326Z,62.72
2023-01-29T06:04:48.733Z,63.24
2023-01-29T06:05:50.936Z,63.64
2023-01-29T06:06:53.327Z,64.44
2023-01-29T06:07:55.508Z,65.10
2023-01-29T06:08:57.896Z,64.70
2023-01-29T06:10:04.100Z,64.36
2023-01-29T06:11:10.500Z,64.80
2023-01-29T06:12:13.044Z,65.58
2023-01-29T06:13:15.238Z,65.92
2023-01-29T06:14:17.680Z,65.16
2023-01-29T06:15:19.882Z,66.07
2023-01-29T06:16:22.149Z,65.66
2023-01-29T06:17:24.710Z,66.15
2023-01-29T06:18:26.924Z,65.92
2023-01-29T06:19:29.276Z,66.49
2023-01-29T06:20:31.506Z,65.89
2023-01-29T06:21:33.734Z,66.10
2023-01-29T06:22:35.964Z,66.57
2023-01-29T06:23:38.891Z,67.01
2023-01-29T06:24:41.347Z,66.90
2023-01-29T06:25:43.601Z,67.12
2023-01-29T06:26:45.838Z,67.09
2023-01-29T06:27:51.028Z,67.24
2023-01-29T06:28:53.419Z,66.96
2023-01-29T06:29:55.842Z,66.50
2023-01-29T06:31:08.252Z,67.23
2023-01-29T06:32:18.648Z,67.66
2023-01-29T06:33:20.830Z,67.84
2023-01-29T06:34:23.239Z,67.87
2023-01-29T06:35:26.303Z,67.80
2023-01-29T06:36:29.723Z,68.80
2023-01-29T06:37:31.892Z,69.06
2023-01-29T06:38:34.361Z,68.87
2023-01-29T06:39:37.847Z,69.40
2023-01-29T06:40:40.233Z,69.28
2023-01-29T06:41:42.461Z,69.71
2023-01-29T06:42:46.179Z,70.11
2023-01-29T06:43:48.430Z,70.05
2023-01-29T06:44:50.836Z,70.36
2023-01-29T06:45:56.110Z,70.13
2023-01-29T06:46:58.406Z,70.06
2023-01-29T06:48:01.655Z,69.94
2023-01-29T06:49:04.019Z,69.47
2023-01-29T06:50:07.063Z,69.73
2023-01-29T06:51:10.804Z,69.67
2023-01-29T06:52:13.099Z,69.89
2023-01-29T06:53:16.563Z,69.82
2023-01-29T06:54:18.760Z,69.89
2023-01-29T06:55:21.235Z,69.31
2023-01-29T06:56:24.107Z,69.36
2023-01-29T06:57:30.068Z,69.28
2023-01-29T06:58:32.328Z,69.33
2023-01-29T06:59:34.534Z,68.90
2023-01-29T07:00:37.224Z,73.22
2023-01-29T07:01:44.363Z,69.72
2023-01-29T07:02:49.700Z,69.07
2023-01-29T07:03:52.477Z,68.08
2023-01-29T07:04:54.716Z,68.07
2023-01-29T07:05:57.101Z,68.04
2023-01-29T07:07:00.011Z,68.31
2023-01-29T07:08:02.232Z,68.37
2023-01-29T07:09:04.974Z,67.98
2023-01-29T07:10:07.921Z,67.59
2023-01-29T07:11:10.454Z,67.27
2023-01-29T07:12:12.643Z,68.03
2023-01-29T07:13:14.815Z,67.66
2023-01-29T07:14:17.052Z,67.08
2023-01-29T07:15:21.286Z,67.56
2023-01-29T07:16:25.137Z,67.53
2023-01-29T07:17:27.420Z,67.09
2023-01-29T07:18:30.365Z,66.97
2023-01-29T07:19:33.230Z,66.97
2023-01-29T07:20:35.595Z,66.75
2023-01-29T07:21:38.152Z,66.77
2023-01-29T07:22:40.326Z,66.87
2023-01-29T07:23:42.551Z,66.97
2023-01-29T07:24:44.846Z,67.29
2023-01-29T07:25:50.005Z,66.81
2023-01-29T07:26:52.222Z,67.16
2023-01-29T07:27:54.661Z,67.64
2023-01-29T07:28:56.897Z,68.00
2023-01-29T07:29:59.071Z,67.13
2023-01-29T07:31:01.523Z,67.28
2023-01-29T07:32:03.891Z,67.29
2023-01-29T07:33:08.240Z,67.30
2023-01-29T07:34:10.637Z,67.72
2023-01-29T07:35:12.799Z,67.99
2023-01-29T07:36:15.473Z,67.90
2023-01-29T07:37:17.682Z,68.26
2023-01-29T07:38:19.961Z,68.18
2023-01-29T07:39:23.323Z,68.05
2023-01-29T07:40:25.529Z,68.59
2023-01-29T07:41:27.931Z,68.08
2023-01-29T07:42:30.497Z,68.16
2023-01-29T07:43:32.713Z,68.26
2023-01-29T07:44:34.996Z,67.97
2023-01-29T07:45:39.156Z,67.82
2023-01-29T07:46:41.445Z,67.96
2023-01-29T07:47:44.003Z,67.64
2023-01-29T07:48:46.197Z,67.89
2023-01-29T07:49:48.599Z,68.39
2023-01-29T07:50:58.455Z,68.27
2023-01-29T07:52:00.674Z,68.60
2023-01-29T07:53:03.643Z,67.55
2023-01-29T07:54:05.959Z,67.56
2023-01-29T07:55:08.784Z,68.46
2023-01-29T07:56:11.021Z,69.06
2023-01-29T07:57:13.206Z,68.59
2023-01-29T07:58:15.639Z,69.12
2023-01-29T07:59:18.018Z,68.41
2023-01-29T08:00:20.943Z,68.68
2023-01-29T08:01:23.271Z,67.93
2023-01-29T08:02:25.567Z,68.27
2023-01-29T08:03:27.982Z,67.37
2023-01-29T08:04:30.328Z,67.53
2023-01-29T08:05:33.022Z,68.00
2023-01-29T08:06:35.427Z,68.47
2023-01-29T08:07:37.635Z,68.70
2023-01-29T08:08:39.821Z,68.46
2023-01-29T08:09:42.404Z,67.31
2023-01-29T08:10:44.586Z,68.00
2023-01-29T08:11:47.021Z,68.76
2023-01-29T08:13:03.336Z,68.58
2023-01-29T08:14:05.715Z,68.51
2023-01-29T08:15:08.793Z,68.72
2023-01-29T08:16:11.123Z,68.71
2023-01-29T08:17:14.290Z,68.66
2023-01-29T08:18:16.506Z,68.49
2023-01-29T08:19:18.690Z,68.75
2023-01-29T08:20:22.249Z,68.51
2023-01-29T08:21:24.435Z,68.72
2023-01-29T08:22:26.614Z,68.37
2023-01-29T08:23:29.138Z,68.18
2023-01-29T08:24:41.822Z,68.47
2023-01-29T08:25:54.263Z,68.69
2023-01-29T08:26:56.502Z,68.87
2023-01-29T08:27:59.709Z,69.23
2023-01-29T08:29:02.173Z,68.71
2023-01-29T08:30:06.005Z,68.53
2023-01-29T08:31:20.696Z,68.44
2023-01-29T08:32:22.956Z,68.33
2023-01-29T08:33:38.067Z,68.46
2023-01-29T08:34:41.472Z,68.07
2023-01-29T08:35:43.925Z,68.33
2023-01-29T08:38:09.434Z,68.02
2023-01-29T08:39:11.624Z,67.97
2023-01-29T08:40:14.327Z,68.08
2023-01-29T08:41:16.566Z,67.80
2023-01-29T08:42:19.490Z,68.10
2023-01-29T08:43:21.719Z,67.37
2023-01-29T08:44:24.157Z,67.49
2023-01-29T08:45:26.757Z,67.28
2023-01-29T08:46:28.930Z,67.45
2023-01-29T08:47:32.730Z,67.74
2023-01-29T08:48:35.121Z,67.68
2023-01-29T08:49:37.331Z,67.49
2023-01-29T08:50:39.991Z,67.86
2023-01-29T08:51:42.199Z,67.80
2023-01-29T08:52:45.847Z,67.50
2023-01-29T08:53:48.484Z,67.82
2023-01-29T08:54:52.172Z,67.75
2023-01-29T08:55:55.116Z,67.04
2023-01-29T08:56:57.335Z,67.28
2023-01-29T08:57:59.735Z,67.40
2023-01-29T08:59:02.312Z,67.26
2023-01-29T09:00:07.207Z,67.81
2023-01-29T09:01:12.403Z,68.11
2023-01-29T09:02:14.635Z,68.04
2023-01-29T09:03:16.865Z,68.03
2023-01-29T09:04:19.271Z,68.11
2023-01-29T09:05:21.520Z,68.09
2023-01-29T09:06:24.077Z,68.11
2023-01-29T09:07:26.310Z,68.42
2023-01-29T09:08:28.508Z,68.09
2023-01-29T09:09:30.903Z,68.00
2023-01-29T09:10:34.145Z,68.04
2023-01-29T09:11:36.757Z,67.16
2023-01-29T09:12:39.103Z,67.25
2023-01-29T09:13:41.407Z,67.35
2023-01-29T09:14:43.827Z,67.77
2023-01-29T09:15:45.984Z,68.22
2023-01-29T09:16:48.393Z,68.73
2023-01-29T09:17:50.669Z,68.91
2023-01-29T09:18:53.473Z,68.82
2023-01-29T09:19:55.952Z,68.63
2023-01-29T09:20:58.548Z,68.61
2023-01-29T09:22:01.002Z,68.99
2023-01-29T09:23:10.474Z,68.62
2023-01-29T09:24:12.687Z,68.59
2023-01-29T09:25:15.495Z,68.17
2023-01-29T09:26:18.251Z,67.62
2023-01-29T09:27:20.473Z,67.46
2023-01-29T09:28:23.003Z,67.28
2023-01-29T09:29:25.146Z,67.82
2023-01-29T09:30:27.441Z,68.12
2023-01-29T09:31:30.121Z,68.38
2023-01-29T09:33:56.375Z,68.24
2023-01-29T09:34:59.183Z,68.11
2023-01-29T09:36:03.485Z,68.02
2023-01-29T09:37:06.810Z,67.61
2023-01-29T09:38:10.345Z,67.35
2023-01-29T09:39:12.583Z,67.40
2023-01-29T09:40:26.727Z,67.78
2023-01-29T09:42:03.398Z,68.08
2023-01-29T09:43:21.654Z,69.07
2023-01-29T09:44:48.729Z,68.69
2023-01-29T09:46:05.268Z,68.65
2023-01-29T09:47:14.154Z,68.55
2023-01-29T09:48:17.014Z,68.65
2023-01-29T09:49:30.804Z,68.42
2023-01-29T09:50:39.897Z,68.30
2023-01-29T09:51:46.888Z,68.83
2023-01-29T09:53:00.977Z,68.88
2023-01-29T09:54:12.215Z,69.16
2023-01-29T09:55:26.621Z,69.58
2023-01-29T09:56:29.302Z,69.30
2023-01-29T09:57:54.904Z,68.82
2023-01-29T09:59:01.378Z,68.66
2023-01-29T10:00:04.394Z,68.54
2023-01-29T10:01:16.923Z,68.61
2023-01-29T10:02:37.589Z,68.55
2023-01-29T10:03:58.462Z,68.93
2023-01-29T10:05:15.564Z,69.33
2023-01-29T10:06:30.149Z,69.61
2023-01-29T10:07:49.012Z,70.05
2023-01-29T10:09:13.468Z,69.98
2023-01-29T10:10:37.222Z,69.26
2023-01-29T10:11:57.696Z,68.62
2023-01-29T10:13:03.199Z,68.97
2023-01-29T10:14:19.848Z,69.05
2023-01-29T10:15:43.640Z,68.92
2023-01-29T10:17:17.931Z,68.52
2023-01-29T10:18:49.289Z,69.28
2023-01-29T10:20:10.419Z,69.86
2023-01-29T10:21:37.228Z,70.96
2023-01-29T10:22:53.014Z,71.13
2023-01-29T10:24:09.309Z,71.23
2023-01-29T10:25:19.668Z,71.21
2023-01-29T10:26:27.414Z,70.70
2023-01-29T10:27:35.348Z,70.28
2023-01-29T10:28:46.778Z,70.20
2023-01-29T10:29:53.146Z,69.93
2023-01-29T10:31:00.233Z,70.25
2023-01-29T10:32:05.889Z,70.15
2023-01-29T10:33:15.805Z,70.31
2023-01-29T10:34:41.380Z,70.52
2023-01-29T10:35:50.056Z,70.09
2023-01-29T10:36:55.156Z,70.13
2023-01-29T10:38:02.764Z,69.75
2023-01-29T10:39:05.167Z,69.40
2023-01-29T10:40:28.409Z,69.14
2023-01-29T10:41:48.669Z,69.06
2023-01-29T10:43:26.779Z,68.82
2023-01-29T10:44:41.556Z,69.08
2023-01-29T10:45:56.654Z,69.42
2023-01-29T10:47:29.275Z,69.91
2023-01-29T10:48:46.022Z,69.08
2023-01-29T10:50:11.591Z,69.36
2023-01-29T10:51:38.151Z,69.36
2023-01-29T10:53:03.066Z,69.65
2023-01-29T10:54:38.847Z,69.57
2023-01-29T10:55:49.348Z,68.80
2023-01-29T10:57:28.955Z,69.06
2023-01-29T10:58:41.829Z,70.01
2023-01-29T11:00:13.123Z,70.25
2023-01-29T11:01:15.871Z,70.30
2023-01-29T11:02:21.329Z,70.01
2023-01-29T11:03:34.270Z,69.98
2023-01-29T11:04:37.677Z,69.95
2023-01-29T11:05:52.210Z,69.81
2023-01-29T11:06:54.398Z,69.53
2023-01-29T11:08:11.905Z,69.80
2023-01-29T11:09:20.169Z,69.72
2023-01-29T11:10:23.953Z,69.49
2023-01-29T11:12:06.979Z,69.49
2023-01-29T11:13:14.202Z,69.18
2023-01-29T11:14:22.585Z,69.43
2023-01-29T11:15:29.813Z,69.35
2023-01-29T11:16:33.662Z,68.93
2023-01-29T11:17:35.893Z,68.95
2023-01-29T11:18:54.624Z,68.98
2023-01-29T11:19:57.063Z,69.27
2023-01-29T11:21:04.625Z,69.02
2023-01-29T11:22:17.123Z,68.55
2023-01-29T11:23:28.401Z,68.11
2023-01-29T11:24:30.839Z,68.23
2023-01-29T11:25:33.353Z,68.16
2023-01-29T11:26:41.128Z,68.08
2023-01-29T11:27:55.722Z,68.21
2023-01-29T11:28:57.937Z,68.16
2023-01-29T11:30:00.219Z,68.03
2023-01-29T11:31:03.014Z,68.00
2023-01-29T11:32:13.936Z,68.26
2023-01-29T11:33:23.919Z,68.17
2023-01-29T11:34:31.057Z,67.54
2023-01-29T11:35:33.423Z,67.59
2023-01-29T11:36:38.360Z,67.42
2023-01-29T11:37:42.875Z,67.81
2023-01-29T11:38:45.073Z,67.33
2023-01-29T11:39:47.521Z,67.33
2023-01-29T11:40:50.288Z,67.53
2023-01-29T11:42:00.454Z,67.29
2023-01-29T11:43:21.821Z,67.28
2023-01-29T11:44:29.355Z,67.44
2023-01-29T11:45:33.921Z,67.50
2023-01-29T11:46:39.861Z,67.43
2023-01-29T11:47:42.315Z,67.11
2023-01-29T11:48:50.206Z,67.08
2023-01-29T11:49:57.646Z,66.92
2023-01-29T11:51:01.254Z,67.37
2023-01-29T11:52:07.353Z,67.19
2023-01-29T11:53:43.885Z,67.05
2023-01-29T11:54:49.330Z,66.96
2023-01-29T11:55:51.829Z,66.74
2023-01-29T11:56:54.488Z,66.70
2023-01-29T11:58:16.864Z,66.52
2023-01-29T11:59:44.728Z,65.85
2023-01-29T12:00:51.080Z,65.61
2023-01-29T12:01:54.710Z,65.11
2023-01-29T12:03:31.491Z,64.71
2023-01-29T12:04:33.997Z,65.36
2023-01-29T12:05:36.283Z,65.54
2023-01-29T12:06:49.134Z,65.91
2023-01-29T12:07:57.178Z,66.32
2023-01-29T12:09:02.406Z,66.12
2023-01-29T12:10:06.931Z,66.48
2023-01-29T12:11:31.345Z,66.63
2023-01-29T12:12:41.691Z,66.51
2023-01-29T12:13:43.922Z,66.38
2023-01-29T12:14:46.108Z,66.54
2023-01-29T12:15:49.223Z,66.63
2023-01-29T12:17:07.179Z,66.38
2023-01-29T12:18:15.754Z,66.32
2023-01-29T12:19:40.688Z,65.52
2023-01-29T12:20:53.211Z,64.94
2023-01-29T12:22:04.750Z,65.16
2023-01-29T12:23:08.731Z,65.53
2023-01-29T12:24:28.694Z,66.13
2023-01-29T12:25:33.407Z,66.31
2023-01-29T12:27:13.401Z,66.34
2023-01-29T12:28:29.915Z,66.22
2023-01-29T12:29:45.685Z,66.22
2023-01-29T12:31:01.934Z,67.26
2023-01-29T12:32:41.376Z,67.42
2023-01-29T12:34:03.272Z,67.40
2023-01-29T12:35:36.643Z,67.86
2023-01-29T12:36:56.812Z,67.86
2023-01-29T12:38:24.263Z,68.58
2023-01-29T12:39:26.943Z,69.26
2023-01-29T12:40:39.977Z,69.34
2023-01-29T12:42:03.391Z,69.62
2023-01-29T12:43:16.396Z,69.91
2023-01-29T12:44:23.808Z,70.06
2023-01-29T12:45:28.224Z,69.82
2023-01-29T12:46:37.840Z,69.26
2023-01-29T12:47:45.719Z,68.91
2023-01-29T12:48:49.686Z,68.85
2023-01-29T12:49:56.420Z,69.22
2023-01-29T12:51:14.290Z,69.46
2023-01-29T12:52:21.932Z,68.77
2023-01-29T12:53:30.280Z,68.52
2023-01-29T12:54:43.105Z,68.70
2023-01-29T12:55:48.805Z,68.56
2023-01-29T12:56:58.183Z,68.43
2023-01-29T12:58:04.187Z,68.20
2023-01-29T12:59:29.431Z,67.86
2023-01-29T13:00:38.689Z,67.45
2023-01-29T13:01:49.744Z,67.72
2023-01-29T13:03:11.132Z,67.36
2023-01-29T13:04:32.772Z,67.23
2023-01-29T13:06:02.742Z,66.81
2023-01-29T13:07:15.928Z,67.23
2023-01-29T13:08:26.519Z,67.56
2023-01-29T13:09:33.432Z,67.36
2023-01-29T13:10:41.204Z,67.31
2023-01-29T13:11:50.246Z,67.26
2023-01-29T13:13:14.259Z,67.41
2023-01-29T13:14:29.157Z,67.04
2023-01-29T13:15:38.449Z,66.99
2023-01-29T13:16:45.864Z,66.86
2023-01-29T13:17:54.436Z,66.35
2023-01-29T13:19:05.061Z,66.46
2023-01-29T13:20:30.222Z,66.89
2023-01-29T13:21:40.255Z,67.58
2023-01-29T13:22:44.273Z,67.69
2023-01-29T13:23:52.930Z,67.60
2023-01-29T13:25:04.674Z,67.36
2023-01-29T13:26:08.085Z,67.75
2023-01-29T13:27:25.094Z,67.88
2023-01-29T13:28:27.995Z,67.29
2023-01-29T13:29:31.258Z,67.54
2023-01-29T13:30:37.225Z,67.35
2023-01-29T13:31:41.322Z,67.09
2023-01-29T13:32:52.484Z,66.90
2023-01-29T13:34:14.805Z,67.33
2023-01-29T13:35:20.499Z,67.30
2023-01-29T13:36:27.891Z,66.19
2023-01-29T13:37:38.860Z,65.78
2023-01-29T13:38:45.054Z,65.30
2023-01-29T13:39:51.066Z,65.39
2023-01-29T13:41:06.120Z,65.98
2023-01-29T13:42:23.934Z,66.45
2023-01-29T13:43:27.498Z,66.61
2023-01-29T13:44:34.437Z,67.12
2023-01-29T13:45:44.203Z,67.34
2023-01-29T13:47:03.565Z,67.37
2023-01-29T13:48:10.052Z,67.66
2023-01-29T13:49:26.490Z,67.11
2023-01-29T13:50:42.995Z,67.23
2023-01-29T13:51:45.277Z,67.20
2023-01-29T13:52:58.055Z,66.85
2023-01-29T13:54:08.815Z,67.09
2023-01-29T13:55:14.010Z,67.12
2023-01-29T13:56:34.738Z,67.05
2023-01-29T13:57:49.494Z,66.50
2023-01-29T13:58:56.538Z,66.48
2023-01-29T13:59:58.855Z,65.98
2023-01-29T14:01:01.613Z,65.81
2023-01-29T14:02:20.279Z,65.97
2023-01-29T14:03:25.392Z,65.80
2023-01-29T14:04:30.664Z,65.63
2023-01-29T14:05:39.773Z,65.86
2023-01-29T14:06:44.258Z,65.70
2023-01-29T14:07:46.392Z,65.88
2023-01-29T14:08:48.910Z,66.07
2023-01-29T14:10:03.183Z,65.96
2023-01-29T14:11:17.761Z,66.01
2023-01-29T14:12:23.083Z,66.35
2023-01-29T14:13:27.964Z,66.03
2023-01-29T14:14:48.114Z,65.75
2023-01-29T14:15:59.105Z,65.91
2023-01-29T14:17:03.414Z,65.20
2023-01-29T14:18:08.713Z,65.20
2023-01-29T14:19:19.000Z,65.61
2023-01-29T14:20:32.361Z,65.81
2023-01-29T14:21:41.262Z,66.38
2023-01-29T14:22:43.823Z,65.39
2023-01-29T14:23:50.821Z,65.73
2023-01-29T14:25:02.355Z,65.56
2023-01-29T14:26:18.828Z,64.83
2023-01-29T14:27:25.456Z,65.13
2023-01-29T14:28:30.927Z,65.39
2023-01-29T14:29:41.186Z,65.83
2023-01-29T14:30:47.902Z,66.01
2023-01-29T14:31:53.156Z,65.63
2023-01-29T14:32:56.056Z,65.13
2023-01-29T14:34:03.898Z,64.36
2023-01-29T14:35:28.403Z,64.89
2023-01-29T14:36:40.604Z,65.26
2023-01-29T14:37:49.167Z,66.09
2023-01-29T14:38:53.927Z,65.33
2023-01-29T14:39:59.850Z,65.01
2023-01-29T14:41:14.415Z,64.50
2023-01-29T14:42:27.024Z,64.80
2023-01-29T14:43:29.558Z,64.97
2023-01-29T14:44:54.721Z,64.79
2023-01-29T14:46:35.432Z,64.76
2023-01-29T14:47:37.604Z,65.32
2023-01-29T14:48:48.688Z,65.75
2023-01-29T14:49:56.358Z,65.38
2023-01-29T14:51:16.640Z,65.79